Bowman, South Carolina
Current Conditions -  °F | °C
As of 5:53 PM on Saturday 20 Dec 2014 (Local Time) from KOGB Reporting Station
Haze Haze  
Wind Chill: 45°   Ceiling: 500
Heat Index: 48°   Visibility: 3mi
Dew Point: 45°   Wind: 7mph
Humidity: 89%   Direction: 70°ENE
Pressure: 30.21"   Gusts: NA
Location:  33.35°N, 80.68°W
Report Text: KOGB 202253Z AUTO 07006KT 3SM BR OVC005 09/07 A3021 RMK AO2 SLP229 T00890072
Loading
Personal Weather Stations






























Interactive Weather Map New forecast layout! Learn more

10-Day Weather Forecast

Advertisements
Track Severe Weather on mobile